Arlington, Wisconsin
Current Conditions -  °F | °C
As of 10:53 PM on Friday 31 Oct 2014 (Local Time) from KMSN Reporting Station
Few Clouds Few Clouds  
Wind Chill: 19°   Ceiling: Unl
Heat Index: 27°   Visibility: 10mi
Dew Point: 18°   Wind: 7mph
Humidity: 69%   Direction: 350°N
Pressure: 30.45"   Gusts: NA
Location:  43.34°N, 89.38°W
Report Text: KMSN 010353Z 35006KT 10SM FEW080 M03/M08 A3045 RMK AO2 SLP323 LAST AUGMENTED OBS OF THE DAY UNTIL 1045Z T10281078
Loading
Personal Weather Stations






























Interactive Weather Map
Tropical Storm Tracking
New forecast layout! Learn more

10-Day Weather Forecast

Advertisements
Track Severe Weather on mobile